createdAt,value
2018-07-10T00:02:45.698Z,16.50
2018-07-10T00:05:26.919Z,16.40
2018-07-10T00:09:03.872Z,16.30
2018-07-10T00:11:32.455Z,16.30
2018-07-10T00:14:00.106Z,16.20
2018-07-10T00:16:27.794Z,16.30
2018-07-10T00:18:56.093Z,16.20
2018-07-10T00:21:23.714Z,16.10
2018-07-10T00:23:51.358Z,16.10
2018-07-10T00:26:18.966Z,16.10
2018-07-10T00:28:47.037Z,16.10
2018-07-10T00:31:16.071Z,16.10
2018-07-10T00:33:43.908Z,16.10
2018-07-10T00:36:11.535Z,16.10
2018-07-10T00:38:50.739Z,16.10
2018-07-10T00:41:27.138Z,16.10
2018-07-10T00:43:55.153Z,16.10
2018-07-10T00:46:23.644Z,16.10
2018-07-10T00:48:51.493Z,16.10
2018-07-10T00:53:47.899Z,16.10
2018-07-10T00:56:15.501Z,16.10
2018-07-10T00:58:43.455Z,16.10
2018-07-10T01:01:11.066Z,16.10
2018-07-10T01:03:38.603Z,16.10
2018-07-10T01:06:06.192Z,16.10
2018-07-10T01:08:33.879Z,16.10
2018-07-10T01:11:04.331Z,16.10
2018-07-10T01:13:32.746Z,16.10
2018-07-10T01:16:00.651Z,16.10
2018-07-10T01:18:36.782Z,16.10
2018-07-10T01:21:05.472Z,16.10
2018-07-10T01:23:33.542Z,16.10
2018-07-10T01:26:01.494Z,16.10
2018-07-10T01:30:59.732Z,16.10
2018-07-10T01:33:27.695Z,16.10
2018-07-10T01:35:55.932Z,15.90
2018-07-10T01:38:23.804Z,15.80
2018-07-10T01:40:52.070Z,15.70
2018-07-10T01:45:48.019Z,15.60
2018-07-10T01:48:15.903Z,15.50
2018-07-10T01:50:47.543Z,15.40
2018-07-10T01:55:43.212Z,15.30
2018-07-10T01:58:11.268Z,15.20
2018-07-10T02:00:40.751Z,15.10
2018-07-10T02:05:36.942Z,15.00
2018-07-10T02:08:05.490Z,15.00
2018-07-10T02:10:33.455Z,14.90
2018-07-10T02:15:29.199Z,14.90
2018-07-10T02:17:57.263Z,14.90
2018-07-10T02:20:26.882Z,14.90
2018-07-10T02:22:57.769Z,14.90
2018-07-10T02:25:25.620Z,14.90
2018-07-10T02:27:53.507Z,14.90
2018-07-10T02:30:21.447Z,14.80
2018-07-10T02:32:49.338Z,14.80
2018-07-10T02:35:17.287Z,14.80
2018-07-10T02:37:45.774Z,14.70
2018-07-10T02:40:13.773Z,14.70
2018-07-10T02:42:41.584Z,14.70
2018-07-10T02:45:09.640Z,14.60
2018-07-10T02:47:38.069Z,14.60
2018-07-10T02:50:05.945Z,14.60
2018-07-10T02:52:38.962Z,14.50
2018-07-10T02:55:07.470Z,14.50
2018-07-10T02:57:36.454Z,14.50
2018-07-10T03:00:04.344Z,14.50
2018-07-10T03:02:32.775Z,14.50
2018-07-10T03:05:02.353Z,14.50
2018-07-10T03:07:30.777Z,14.50
2018-07-10T03:12:28.303Z,14.50
2018-07-10T03:17:26.524Z,14.50
2018-07-10T03:19:54.575Z,14.40
2018-07-10T03:22:22.434Z,14.40
2018-07-10T03:24:50.267Z,14.40
2018-07-10T03:27:18.239Z,14.40
2018-07-10T03:29:46.111Z,14.40
2018-07-10T03:34:41.733Z,14.30
2018-07-10T03:39:39.033Z,14.30
2018-07-10T03:42:07.068Z,14.30
2018-07-10T03:44:35.183Z,14.30
2018-07-10T03:47:03.065Z,14.30
2018-07-10T03:49:31.044Z,14.30
2018-07-10T03:52:00.976Z,14.30
2018-07-10T03:54:28.842Z,14.40
2018-07-10T03:56:56.906Z,14.40
2018-07-10T03:59:24.847Z,14.40
2018-07-10T04:01:52.785Z,14.50
2018-07-10T04:04:20.982Z,14.40
2018-07-10T04:06:48.760Z,14.50
2018-07-10T04:09:16.855Z,14.50
2018-07-10T04:11:46.538Z,14.50
2018-07-10T04:14:14.885Z,14.50
2018-07-10T04:16:43.840Z,14.50
2018-07-10T04:19:12.657Z,14.50
2018-07-10T04:21:41.000Z,14.50
2018-07-10T04:24:12.005Z,14.50
2018-07-10T04:29:26.475Z,14.50
2018-07-10T04:31:59.056Z,14.50
2018-07-10T04:34:33.222Z,14.60
2018-07-10T04:37:07.982Z,14.70
2018-07-10T04:39:37.359Z,14.70
2018-07-10T04:42:12.415Z,14.80
2018-07-10T04:44:40.999Z,14.90
2018-07-10T04:47:18.027Z,15.00
2018-07-10T04:49:58.009Z,15.10
2018-07-10T04:52:29.033Z,15.20
2018-07-10T04:55:08.168Z,15.30
2018-07-10T04:58:41.556Z,15.40
2018-07-10T05:01:09.560Z,15.50
2018-07-10T05:03:37.880Z,15.70
2018-07-10T05:06:06.840Z,15.70
2018-07-10T05:08:34.679Z,15.80
2018-07-10T05:11:02.818Z,15.90
2018-07-10T05:13:30.871Z,16.00
2018-07-10T05:18:27.927Z,16.10
2018-07-10T05:20:56.345Z,16.20
2018-07-10T05:23:25.438Z,16.20
2018-07-10T05:25:54.771Z,16.30
2018-07-10T05:28:23.444Z,16.20
2018-07-10T05:30:54.765Z,16.30
2018-07-10T05:33:22.730Z,16.30
2018-07-10T05:35:51.091Z,16.30
2018-07-10T05:38:24.235Z,16.40
2018-07-10T05:40:52.203Z,16.30
2018-07-10T05:45:47.805Z,16.30
2018-07-10T05:48:17.052Z,16.30
2018-07-10T05:50:44.891Z,16.20
2018-07-10T05:53:12.769Z,16.30
2018-07-10T05:55:45.940Z,16.20
2018-07-10T05:58:13.834Z,16.10
2018-07-10T06:00:42.225Z,16.10
2018-07-10T06:03:10.407Z,16.10
2018-07-10T06:05:38.464Z,16.10
2018-07-10T06:08:06.350Z,16.10
2018-07-10T06:10:34.350Z,16.10
2018-07-10T06:13:03.516Z,16.10
2018-07-10T06:15:31.573Z,16.20
2018-07-10T06:18:02.637Z,16.20
2018-07-10T06:20:30.544Z,16.20
2018-07-10T06:22:58.331Z,16.30
2018-07-10T06:25:30.930Z,16.40
2018-07-10T06:28:02.032Z,16.50
2018-07-10T06:30:30.000Z,16.60
2018-07-10T06:32:59.045Z,16.70
2018-07-10T06:35:37.370Z,16.80
2018-07-10T06:38:10.243Z,17.00
2018-07-10T06:40:39.654Z,17.00
2018-07-10T06:43:18.724Z,17.10
2018-07-10T06:45:47.066Z,17.10
2018-07-10T06:48:14.994Z,17.20
2018-07-10T06:50:42.855Z,17.30
2018-07-10T06:53:11.626Z,17.30
2018-07-10T06:55:47.988Z,17.40
2018-07-10T06:58:15.911Z,17.50
2018-07-10T07:03:11.731Z,17.60
2018-07-10T07:05:39.840Z,17.70
2018-07-10T07:08:07.851Z,17.80
2018-07-10T07:10:35.858Z,17.80
2018-07-10T07:13:03.869Z,17.80
2018-07-10T07:15:31.784Z,17.90
2018-07-10T07:17:59.776Z,18.00
2018-07-10T07:20:27.599Z,18.10
2018-07-10T07:22:55.551Z,18.30
2018-07-10T07:25:23.612Z,18.60
2018-07-10T07:27:51.529Z,18.80
2018-07-10T07:32:48.122Z,19.20
2018-07-10T07:35:16.235Z,19.30
2018-07-10T07:37:44.172Z,19.50
2018-07-10T07:40:12.411Z,19.60
2018-07-10T07:42:40.935Z,19.80
2018-07-10T07:45:08.755Z,20.00
2018-07-10T07:47:37.199Z,20.10
2018-07-10T07:50:05.011Z,20.10
2018-07-10T07:52:33.133Z,20.20
2018-07-10T07:55:02.173Z,20.30
2018-07-10T07:57:30.295Z,20.40
2018-07-10T07:59:58.334Z,20.50
2018-07-10T08:02:26.215Z,20.70
2018-07-10T08:04:55.933Z,21.00
2018-07-10T08:07:24.392Z,21.10
2018-07-10T08:09:53.707Z,20.90
2018-07-10T08:12:21.985Z,20.80
2018-07-10T08:14:50.598Z,20.50
2018-07-10T08:17:18.410Z,20.40
2018-07-10T08:19:46.601Z,20.20
2018-07-10T08:22:14.562Z,20.10
2018-07-10T08:24:42.580Z,19.90
2018-07-10T08:27:10.772Z,19.70
2018-07-10T08:29:39.089Z,19.50
2018-07-10T08:34:34.672Z,18.90
2018-07-10T08:37:02.609Z,18.80
2018-07-10T08:39:30.498Z,18.60
2018-07-10T08:41:58.415Z,18.50
2018-07-10T08:44:26.390Z,18.20
2018-07-10T08:46:56.829Z,18.00
2018-07-10T08:49:31.036Z,17.90
2018-07-10T08:51:59.158Z,17.70
2018-07-10T08:54:26.987Z,17.60
2018-07-10T08:56:54.947Z,17.50
2018-07-10T08:59:22.982Z,17.50
2018-07-10T09:01:51.023Z,17.60
2018-07-10T09:04:19.480Z,17.60
2018-07-10T09:06:47.570Z,17.80
2018-07-10T09:11:44.373Z,18.00
2018-07-10T09:14:13.739Z,18.20
2018-07-10T09:16:42.411Z,18.40
2018-07-10T09:19:15.752Z,18.70
2018-07-10T09:21:51.172Z,18.80
2018-07-10T09:24:19.058Z,19.10
2018-07-10T09:26:47.728Z,19.50
2018-07-10T09:29:17.919Z,19.80
2018-07-10T09:31:45.750Z,20.20
2018-07-10T09:34:13.574Z,20.60
2018-07-10T09:36:41.391Z,21.10
2018-07-10T09:39:10.281Z,21.60
2018-07-10T09:41:38.541Z,22.20
2018-07-10T09:44:06.588Z,22.90
2018-07-10T09:46:35.015Z,23.50
2018-07-10T09:49:03.028Z,24.00
2018-07-10T09:51:31.006Z,24.50
2018-07-10T09:53:58.913Z,24.50
2018-07-10T09:56:26.649Z,24.60
2018-07-10T09:58:55.313Z,24.70
2018-07-10T10:01:27.509Z,24.90
2018-07-10T10:03:56.442Z,24.80
2018-07-10T10:06:25.467Z,24.30
2018-07-10T10:08:53.260Z,24.00
2018-07-10T10:11:21.297Z,23.60
2018-07-10T10:13:49.197Z,23.40
2018-07-10T10:16:19.275Z,23.20
2018-07-10T10:18:48.649Z,23.30
2018-07-10T10:21:16.853Z,23.30
2018-07-10T10:23:44.671Z,23.40
2018-07-10T10:26:13.817Z,23.40
2018-07-10T10:28:41.791Z,23.10
2018-07-10T10:31:09.721Z,22.70
2018-07-10T10:33:37.656Z,22.20
2018-07-10T10:36:05.620Z,21.70
2018-07-10T10:38:36.595Z,21.20
2018-07-10T10:41:04.408Z,20.80
2018-07-10T10:43:32.446Z,20.50
2018-07-10T10:46:00.318Z,20.30
2018-07-10T10:48:28.146Z,20.20
2018-07-10T10:50:55.923Z,20.20
2018-07-10T10:53:23.836Z,20.40
2018-07-10T10:55:51.667Z,20.70
2018-07-10T10:58:20.342Z,21.30
2018-07-10T11:00:48.336Z,21.60
2018-07-10T11:03:16.138Z,21.80
2018-07-10T11:05:44.218Z,21.80
2018-07-10T11:08:13.969Z,21.70
2018-07-10T11:10:42.527Z,21.40
2018-07-10T11:13:11.687Z,21.10
2018-07-10T11:15:44.096Z,20.90
2018-07-10T11:18:16.514Z,20.60
2018-07-10T11:20:50.278Z,20.60
2018-07-10T11:23:56.514Z,20.60
2018-07-10T11:26:31.338Z,20.70
2018-07-10T11:28:59.104Z,21.00
2018-07-10T11:31:26.931Z,21.40
2018-07-10T11:33:54.720Z,21.70
2018-07-10T11:36:22.651Z,22.20
2018-07-10T11:38:50.499Z,22.50
2018-07-10T11:41:18.508Z,22.80
2018-07-10T11:43:50.400Z,23.00
2018-07-10T11:46:18.283Z,23.20
2018-07-10T11:48:46.410Z,23.50
2018-07-10T11:51:14.191Z,23.50
2018-07-10T11:53:42.143Z,23.70
2018-07-10T11:56:10.091Z,24.00
2018-07-10T11:58:38.268Z,24.10
2018-07-10T12:01:06.185Z,24.40
2018-07-10T12:03:37.274Z,24.70
2018-07-10T12:06:06.100Z,24.80
2018-07-10T12:08:34.244Z,24.50
2018-07-10T12:11:20.910Z,24.10
2018-07-10T12:13:49.007Z,23.60
2018-07-10T12:16:16.871Z,23.00
2018-07-10T12:18:44.675Z,22.70
2018-07-10T12:21:15.478Z,22.90
2018-07-10T12:23:43.401Z,23.00
2018-07-10T12:26:11.659Z,23.10
2018-07-10T12:28:39.814Z,23.20
2018-07-10T12:31:07.661Z,23.20
2018-07-10T12:33:35.450Z,23.50
2018-07-10T12:36:03.227Z,24.20
2018-07-10T12:38:31.079Z,24.80
2018-07-10T12:43:26.964Z,25.00
2018-07-10T12:45:54.829Z,24.80
2018-07-10T12:48:22.709Z,24.60
2018-07-10T12:50:50.634Z,24.30
2018-07-10T12:53:18.297Z,24.00
2018-07-10T12:55:45.910Z,23.40
2018-07-10T12:58:14.079Z,23.00
2018-07-10T13:00:42.261Z,22.50
2018-07-10T13:03:10.750Z,22.10
2018-07-10T13:05:48.409Z,21.80
2018-07-10T13:10:45.374Z,21.20
2018-07-10T13:13:13.234Z,21.00
2018-07-10T13:15:44.889Z,21.00
2018-07-10T13:18:12.803Z,21.30
2018-07-10T13:20:40.455Z,21.60
2018-07-10T13:23:08.275Z,22.10
2018-07-10T13:25:35.904Z,23.00
2018-07-10T13:28:03.841Z,23.70
2018-07-10T13:30:31.762Z,24.00
2018-07-10T13:32:59.389Z,24.10
2018-07-10T13:35:27.018Z,24.20
2018-07-10T13:37:54.790Z,24.00
2018-07-10T13:40:22.424Z,23.80
2018-07-10T13:42:54.951Z,23.50
2018-07-10T13:45:23.811Z,23.40
2018-07-10T13:47:51.934Z,23.60
2018-07-10T13:50:21.521Z,23.70
2018-07-10T13:52:49.471Z,23.90
2018-07-10T13:55:17.373Z,24.20
2018-07-10T13:57:54.106Z,24.10
2018-07-10T14:00:22.067Z,24.20
2018-07-10T14:02:51.985Z,24.50
2018-07-10T14:05:21.039Z,24.60
2018-07-10T14:07:48.697Z,24.60
2018-07-10T14:10:16.343Z,24.30
2018-07-10T14:12:43.968Z,24.00
2018-07-10T14:15:11.555Z,23.90
2018-07-10T14:17:40.858Z,23.90
2018-07-10T14:20:08.457Z,24.30
2018-07-10T14:22:36.105Z,24.70
2018-07-10T14:25:03.756Z,25.00
2018-07-10T14:27:32.909Z,25.10
2018-07-10T14:30:00.944Z,25.10
2018-07-10T14:32:29.904Z,24.80
2018-07-10T14:35:09.710Z,24.40
2018-07-10T14:37:37.583Z,23.80
2018-07-10T14:40:05.402Z,23.20
2018-07-10T14:42:33.022Z,22.90
2018-07-10T14:47:30.035Z,22.50
2018-07-10T14:49:57.637Z,22.60
2018-07-10T14:52:25.257Z,22.60
2018-07-10T14:54:52.859Z,22.70
2018-07-10T14:57:20.513Z,22.80
2018-07-10T14:59:48.245Z,22.60
2018-07-10T15:02:15.905Z,22.40
2018-07-10T15:04:43.493Z,22.30
2018-07-10T15:07:11.214Z,22.50
2018-07-10T15:09:38.813Z,22.80
2018-07-10T15:12:06.422Z,22.80
2018-07-10T15:14:34.240Z,22.40
2018-07-10T15:17:07.442Z,22.30
2018-07-10T15:19:37.139Z,22.30
2018-07-10T15:22:04.770Z,22.10
2018-07-10T15:24:32.429Z,22.20
2018-07-10T15:27:00.036Z,22.40
2018-07-10T15:29:27.608Z,22.70
2018-07-10T15:31:55.237Z,23.00
2018-07-10T15:34:22.835Z,23.20
2018-07-10T15:36:50.857Z,23.20
2018-07-10T15:39:18.797Z,23.00
2018-07-10T15:41:46.916Z,22.90
2018-07-10T15:44:14.429Z,23.00
2018-07-10T15:46:42.025Z,22.80
2018-07-10T15:49:09.610Z,22.80
2018-07-10T15:51:37.280Z,22.60
2018-07-10T15:54:05.106Z,22.30
2018-07-10T15:56:33.118Z,22.40
2018-07-10T15:59:00.707Z,22.20
2018-07-10T16:01:28.398Z,22.10
2018-07-10T16:03:56.256Z,22.30
2018-07-10T16:06:24.854Z,22.50
2018-07-10T16:08:59.445Z,22.70
2018-07-10T16:11:27.878Z,22.80
2018-07-10T16:13:55.608Z,22.60
2018-07-10T16:16:25.293Z,22.40
2018-07-10T16:18:56.659Z,22.20
2018-07-10T16:21:29.800Z,22.10
2018-07-10T16:23:57.781Z,21.80
2018-07-10T16:26:25.389Z,21.50
2018-07-10T16:28:53.424Z,21.30
2018-07-10T16:31:21.505Z,21.20
2018-07-10T16:33:49.214Z,21.20
2018-07-10T16:36:22.513Z,21.40
2018-07-10T16:38:50.302Z,21.40
2018-07-10T16:41:23.836Z,21.50
2018-07-10T16:43:51.614Z,21.40
2018-07-10T16:46:26.823Z,21.40
2018-07-10T16:49:05.374Z,21.40
2018-07-10T16:51:42.652Z,21.20
2018-07-10T16:54:10.281Z,21.00
2018-07-10T16:56:37.944Z,20.80
2018-07-10T16:59:05.547Z,20.60
2018-07-10T17:01:33.172Z,20.50
2018-07-10T17:04:02.683Z,20.50
2018-07-10T17:06:30.507Z,20.50
2018-07-10T17:08:59.190Z,20.40
2018-07-10T17:13:58.541Z,20.30
2018-07-10T17:16:27.963Z,20.30
2018-07-10T17:18:56.275Z,20.30
2018-07-10T17:21:24.961Z,20.30
2018-07-10T17:24:02.150Z,20.30
2018-07-10T17:26:30.061Z,20.20
2018-07-10T17:28:59.303Z,20.10
2018-07-10T17:31:26.924Z,20.10
2018-07-10T17:33:54.510Z,20.00
2018-07-10T17:36:22.065Z,19.90
2018-07-10T17:38:49.847Z,19.90
2018-07-10T17:41:17.419Z,19.80
2018-07-10T17:43:45.362Z,19.70
2018-07-10T17:46:12.979Z,19.50
2018-07-10T17:48:53.188Z,19.40
2018-07-10T17:51:20.827Z,19.20
2018-07-10T17:54:03.730Z,19.10
2018-07-10T17:56:37.555Z,19.00
2018-07-10T17:59:06.689Z,19.00
2018-07-10T18:01:34.807Z,19.00
2018-07-10T18:04:02.701Z,18.90
2018-07-10T18:06:31.822Z,18.90
2018-07-10T18:08:59.506Z,18.90
2018-07-10T18:11:27.234Z,18.80
2018-07-10T18:14:07.551Z,18.60
2018-07-10T18:16:35.734Z,18.50
2018-07-10T18:19:09.257Z,18.50
2018-07-10T18:21:37.150Z,18.40
2018-07-10T18:24:04.874Z,18.30
2018-07-10T18:26:32.578Z,18.20
2018-07-10T18:29:00.214Z,18.20
2018-07-10T18:31:45.298Z,18.10
2018-07-10T18:34:13.058Z,18.10
2018-07-10T18:36:40.682Z,18.00
2018-07-10T18:39:08.286Z,17.90
2018-07-10T18:41:36.090Z,17.80
2018-07-10T18:44:03.878Z,17.70
2018-07-10T18:46:31.462Z,17.60
2018-07-10T18:48:59.614Z,17.60
2018-07-10T18:51:27.242Z,17.50
2018-07-10T18:53:55.058Z,17.40
2018-07-10T18:58:57.571Z,17.30
2018-07-10T19:01:58.299Z,17.20
2018-07-10T19:04:43.871Z,17.20
2018-07-10T19:09:39.191Z,17.00
2018-07-10T19:12:09.082Z,16.90
2018-07-10T19:17:11.498Z,16.70
2018-07-10T19:22:10.318Z,16.40
2018-07-10T19:24:39.875Z,16.30
2018-07-10T19:27:07.466Z,16.10
2018-07-10T19:29:44.454Z,16.00
2018-07-10T19:32:12.085Z,15.90
2018-07-10T19:34:39.713Z,15.70
2018-07-10T19:37:07.357Z,15.50
2018-07-10T19:39:34.950Z,15.40
2018-07-10T19:42:03.550Z,15.30
2018-07-10T19:44:31.162Z,15.10
2018-07-10T19:49:26.406Z,14.90
2018-07-10T19:52:00.418Z,14.70
2018-07-10T19:54:28.032Z,14.60
2018-07-10T19:59:32.103Z,14.40
2018-07-10T20:02:04.798Z,14.30
2018-07-10T20:05:13.738Z,14.10
2018-07-10T20:07:53.087Z,14.00
2018-07-10T20:10:35.258Z,13.90
2018-07-10T20:14:09.595Z,13.80
2018-07-10T20:16:51.704Z,13.70
2018-07-10T20:19:23.302Z,13.50
2018-07-10T20:22:05.676Z,13.50
2018-07-10T20:24:33.623Z,13.40
2018-07-10T20:27:17.773Z,13.30
2018-07-10T20:29:56.757Z,13.30
2018-07-10T20:32:34.186Z,13.30
2018-07-10T20:35:13.726Z,13.20
2018-07-10T20:37:41.441Z,13.20
2018-07-10T20:40:21.349Z,13.30
2018-07-10T20:42:48.988Z,13.30
2018-07-10T20:45:16.600Z,13.30
2018-07-10T20:47:51.062Z,13.40
2018-07-10T20:51:35.567Z,13.40
2018-07-10T20:55:14.112Z,13.50
2018-07-10T20:58:03.634Z,13.50
2018-07-10T21:00:35.470Z,13.50
2018-07-10T21:03:56.388Z,13.50
2018-07-10T21:06:42.831Z,13.40
2018-07-10T21:11:52.882Z,13.20
2018-07-10T21:14:33.328Z,13.10
2018-07-10T21:17:08.970Z,13.00
2018-07-10T21:19:57.377Z,13.00
2018-07-10T21:23:20.463Z,12.90
2018-07-10T21:27:07.304Z,12.80
2018-07-10T21:29:47.125Z,12.80
2018-07-10T21:32:32.634Z,12.70
2018-07-10T21:35:02.215Z,12.70
2018-07-10T21:37:41.271Z,12.60
2018-07-10T21:40:17.662Z,12.80
2018-07-10T21:46:05.018Z,12.70
2018-07-10T21:48:51.938Z,12.70
2018-07-10T21:51:19.612Z,12.70
2018-07-10T21:53:47.290Z,12.70
2018-07-10T21:56:14.963Z,12.70
2018-07-10T21:58:42.570Z,12.70
2018-07-10T22:01:48.832Z,12.70
2018-07-10T22:04:22.864Z,12.70
2018-07-10T22:06:51.134Z,12.70
2018-07-10T22:09:19.129Z,12.70
2018-07-10T22:11:47.514Z,12.80
2018-07-10T22:14:15.858Z,12.80
2018-07-10T22:16:43.516Z,12.80
2018-07-10T22:19:11.919Z,12.80
2018-07-10T22:21:40.232Z,12.80
2018-07-10T22:24:09.116Z,12.90
2018-07-10T22:26:38.231Z,12.80
2018-07-10T22:29:05.936Z,12.80
2018-07-10T22:31:39.323Z,12.90
2018-07-10T22:34:07.047Z,12.90
2018-07-10T22:36:34.643Z,12.90
2018-07-10T22:39:02.300Z,12.90
2018-07-10T22:41:29.920Z,12.80
2018-07-10T22:43:58.314Z,12.80
2018-07-10T22:46:29.250Z,12.80
2018-07-10T22:49:00.971Z,12.70
2018-07-10T22:51:28.579Z,12.70
2018-07-10T22:53:56.859Z,12.60
2018-07-10T22:56:24.836Z,12.60
2018-07-10T22:58:52.488Z,12.60
2018-07-10T23:01:20.092Z,12.60
2018-07-10T23:06:15.183Z,12.60
2018-07-10T23:08:42.991Z,12.60
2018-07-10T23:11:12.506Z,12.70
2018-07-10T23:13:41.797Z,12.70
2018-07-10T23:16:10.210Z,12.70
2018-07-10T23:18:39.254Z,12.70
2018-07-10T23:21:06.911Z,12.70
2018-07-10T23:23:34.658Z,12.70
2018-07-10T23:26:02.255Z,12.70
2018-07-10T23:28:29.896Z,12.80
2018-07-10T23:30:57.539Z,12.80
2018-07-10T23:33:25.846Z,12.80
2018-07-10T23:35:54.879Z,12.80
2018-07-10T23:38:29.936Z,12.90
2018-07-10T23:40:59.082Z,12.90
2018-07-10T23:45:57.587Z,12.90
2018-07-10T23:48:25.199Z,12.90
2018-07-10T23:50:52.822Z,12.90
2018-07-10T23:53:45.691Z,13.00
2018-07-10T23:56:13.507Z,12.90
2018-07-10T23:58:41.157Z,13.00
